Time;durP1;ratioP1;P1;durP2;ratioP2;P2;SDS_P1;SDS_P2;PMS_P1;PMS_P2;Temp;Humidity;BMP_temperature;BMP_pressure;BME280_temperature;BME280_humidity;BME280_pressure;Samples;Min_cycle;Max_cycle;Signal;HPM_P1;HPM_P2
2021/05/13 00:01:55;;;;;;;40.22;14.27;;;10.30;90.50;;;;;;5061642;28;20123;-89
2021/05/13 00:04:21;;;;;;;92.68;15.13;;;10.30;90.60;;;;;;5046226;28;20017;-90
2021/05/13 00:06:47;;;;;;;40.28;13.73;;;10.30;90.60;;;;;;5041727;28;20376;-89
2021/05/13 00:09:13;;;;;;;37.25;14.32;;;10.30;90.60;;;;;;5041549;28;20020;-89
2021/05/13 00:11:43;;;;;;;92.32;15.70;;;10.30;90.60;;;;;;5040860;28;20027;-89
2021/05/13 00:14:09;;;;;;;41.38;14.10;;;10.20;90.60;;;;;;5037274;28;20502;-90
2021/05/13 00:16:36;;;;;;;41.92;14.23;;;10.20;90.60;;;;;;5031398;28;20465;-90
2021/05/13 00:19:06;;;;;;;89.88;14.57;;;10.20;90.70;;;;;;5018072;28;20035;-91
2021/05/13 00:21:32;;;;;;;99.32;14.88;;;10.10;90.70;;;;;;5036370;28;20029;-89
2021/05/13 00:23:57;;;;;;;99.32;15.60;;;10.10;90.70;;;;;;5037902;28;20024;-90
2021/05/13 00:26:40;;;;;;;45.47;13.23;;;10.10;90.70;;;;;;5038030;28;20021;-89
2021/05/13 00:29:08;;;;;;;;;;;10.00;90.80;;;;;;5038418;28;20439;-90
2021/05/13 00:31:34;;;;;;;104.55;13.80;;;10.10;90.80;;;;;;5037959;28;19912;-90
2021/05/13 00:34:01;;;;;;;151.45;15.23;;;10.10;90.70;;;;;;5037424;28;20021;-90
2021/05/13 00:36:37;;;;;;;146.82;14.82;;;10.00;90.70;;;;;;5037434;28;20036;-90
2021/05/13 00:39:08;;;;;;;117.55;13.65;;;10.00;90.70;;;;;;5037926;28;20021;-90
2021/05/13 00:41:34;;;;;;;104.93;13.52;;;10.00;90.80;;;;;;5037535;28;20032;-90
2021/05/13 00:44:00;;;;;;;116.35;14.45;;;9.90;90.80;;;;;;5037662;28;20021;-90
2021/05/13 00:46:26;;;;;;;77.00;14.02;;;9.90;90.80;;;;;;5037135;28;20033;-90
2021/05/13 00:49:00;;;;;;;51.25;14.45;;;9.80;90.80;;;;;;5037778;28;20056;-89
2021/05/13 00:51:27;;;;;;;42.72;14.82;;;9.70;90.80;;;;;;5037169;28;20116;-90
2021/05/13 00:53:54;;;;;;;29.63;15.60;;;9.60;90.80;;;;;;5037644;28;20087;-89
2021/05/13 00:56:20;;;;;;;35.53;16.42;;;9.60;90.80;;;;;;5055019;28;20025;-90
2021/05/13 00:58:47;;;;;;;41.45;16.45;;;9.50;90.80;;;;;;5037353;28;20043;-90
2021/05/13 01:01:15;;;;;;;33.03;17.02;;;9.50;91.00;;;;;;5037224;28;20021;-90
2021/05/13 01:03:41;;;;;;;34.15;16.88;;;9.40;91.10;;;;;;5037054;28;20021;-90
2021/05/13 01:06:11;;;;;;;45.00;17.95;;;9.50;91.10;;;;;;5021019;28;20017;-89
2021/05/13 01:08:37;;;;;;;38.50;17.85;;;9.50;91.10;;;;;;5017239;28;20025;-90
2021/05/13 01:11:04;;;;;;;31.23;17.35;;;9.50;91.00;;;;;;5033522;28;20021;-89
2021/05/13 01:13:33;;;;;;;33.15;16.63;;;9.40;91.00;;;;;;5037013;28;20028;-90
2021/05/13 01:16:12;;;;;;;35.85;16.38;;;9.40;91.10;;;;;;5037481;28;20052;-89
2021/05/13 01:18:40;;;;;;;25.55;15.55;;;9.40;91.10;;;;;;5036914;28;20435;-89
2021/05/13 01:21:05;;;;;;;34.15;15.77;;;9.30;91.10;;;;;;5037077;28;20032;-89
2021/05/13 01:23:31;;;;;;;20.83;13.48;;;9.30;91.20;;;;;;5027572;28;20029;-90
2021/05/13 01:25:57;;;;;;;23.73;14.20;;;9.30;91.20;;;;;;5036838;28;20021;-89
2021/05/13 01:28:27;;;;;;;21.40;13.43;;;9.30;91.30;;;;;;5036565;28;20033;-89
2021/05/13 01:30:55;;;;;;;20.38;14.85;;;9.30;91.20;;;;;;5029888;28;20565;-89
2021/05/13 01:33:22;;;;;;;21.27;14.40;;;9.40;91.30;;;;;;5016643;28;20026;-90
2021/05/13 01:35:49;;;;;;;19.05;13.55;;;9.40;91.30;;;;;;5028620;28;20021;-90
2021/05/13 01:38:17;;;;;;;20.15;14.80;;;9.40;91.30;;;;;;5036169;28;20344;-90
2021/05/13 01:40:58;;;;;;;21.48;14.63;;;9.40;91.30;;;;;;5036604;28;20383;-90
2021/05/13 01:43:26;;;;;;;25.23;15.10;;;9.50;91.40;;;;;;5036526;28;20044;-90
2021/05/13 01:45:52;;;;;;;22.88;15.45;;;9.50;91.30;;;;;;5036481;28;20025;-89
2021/05/13 01:48:17;;;;;;;20.70;14.10;;;9.50;91.30;;;;;;5027864;28;20028;-89
2021/05/13 01:50:47;;;;;;;36.60;14.93;;;9.60;91.30;;;;;;5016640;28;20052;-90
2021/05/13 01:53:13;;;;;;;22.05;14.05;;;9.60;91.30;;;;;;5029435;28;20090;-90
2021/05/13 01:55:38;;;;;;;30.92;15.15;;;9.60;91.20;;;;;;5017643;28;20037;-90
2021/05/13 01:58:04;;;;;;;32.75;16.38;;;9.60;91.30;;;;;;5017228;28;20029;-90
2021/05/13 02:00:31;;;;;;;23.17;14.43;;;9.60;91.30;;;;;;5030690;28;20392;-89
2021/05/13 02:02:57;;;;;;;54.30;15.63;;;9.70;91.30;;;;;;5016347;28;20392;-89
2021/05/13 02:05:23;;;;;;;36.42;14.80;;;9.60;91.20;;;;;;5028788;28;20031;-89
2021/05/13 02:07:49;;;;;;;92.03;14.18;;;9.60;91.20;;;;;;5035795;28;20339;-90
2021/05/13 02:10:15;;;;;;;124.05;14.57;;;9.60;91.20;;;;;;5017571;28;20133;-90
2021/05/13 02:12:42;;;;;;;75.30;13.77;;;9.60;91.00;;;;;;5016269;28;20029;-90
2021/05/13 02:15:13;;;;;;;99.93;13.43;;;9.50;91.10;;;;;;5015813;28;20623;-90
2021/05/13 02:17:40;;;;;;;100.07;14.00;;;9.50;91.10;;;;;;5016302;28;20497;-89
2021/05/13 02:20:09;;;;;;;73.95;13.07;;;9.50;91.10;;;;;;5056997;28;20359;-90
2021/05/13 02:22:34;;;;;;;136.35;14.98;;;9.40;91.20;;;;;;5071232;28;20383;-89
2021/05/13 02:25:00;;;;;;;292.80;17.13;;;9.40;91.30;;;;;;5035784;28;20017;-90
2021/05/13 02:27:26;;;;;;;362.70;17.27;;;9.40;91.20;;;;;;5035450;28;20076;-89
2021/05/13 02:29:52;;;;;;;300.25;16.58;;;9.40;91.00;;;;;;5035430;28;20032;-89
2021/05/13 02:32:17;;;;;;;90.90;12.20;;;9.30;91.20;;;;;;5018898;28;20059;-89
2021/05/13 02:34:43;;;;;;;164.38;15.07;;;9.30;91.30;;;;;;5015696;28;20052;-90
2021/05/13 02:37:08;;;;;;;51.08;11.82;;;9.30;91.40;;;;;;5015144;28;20021;-89
2021/05/13 02:39:34;;;;;;;166.75;14.88;;;9.30;91.40;;;;;;5015760;28;20467;-89
2021/05/13 02:42:00;;;;;;;174.73;14.50;;;9.30;91.40;;;;;;5015795;28;20032;-90
2021/05/13 02:44:25;;;;;;;235.98;15.57;;;9.30;91.40;;;;;;5027820;28;20025;-90
2021/05/13 02:46:51;;;;;;;126.57;12.43;;;9.30;91.40;;;;;;5053235;28;20032;-90
2021/05/13 02:49:17;;;;;;;141.88;13.25;;;9.30;91.30;;;;;;5015952;28;20034;-89
2021/05/13 02:51:42;;;;;;;181.27;15.15;;;9.20;91.20;;;;;;5018660;28;20089;-89
2021/05/13 02:54:08;;;;;;;174.63;13.25;;;9.20;91.50;;;;;;5029728;28;20040;-89
2021/05/13 02:56:33;;;;;;;143.95;11.77;;;9.10;91.30;;;;;;5035429;28;20021;-90
2021/05/13 02:58:59;;;;;;;273.15;15.40;;;9.10;91.30;;;;;;5035414;28;20467;-89
2021/05/13 03:01:26;;;;;;;132.75;12.20;;;9.10;91.30;;;;;;5033294;28;20236;-89
2021/05/13 03:03:53;;;;;;;226.98;15.38;;;9.00;91.30;;;;;;5035179;28;20105;-89
2021/05/13 03:06:21;;;;;;;237.75;15.07;;;9.00;91.40;;;;;;5035443;28;20415;-90
2021/05/13 03:08:53;;;;;;;254.75;15.70;;;8.90;91.40;;;;;;5035475;28;20398;-89
2021/05/13 03:11:19;;;;;;;242.90;14.18;;;8.90;91.40;;;;;;5035499;28;20017;-89
2021/05/13 03:13:46;;;;;;;199.77;13.80;;;8.90;91.50;;;;;;5032701;28;20033;-89
2021/05/13 03:16:11;;;;;;;44.83;10.95;;;8.80;91.50;;;;;;5015374;28;20104;-90
2021/05/13 03:18:37;;;;;;;193.15;14.93;;;8.80;91.50;;;;;;5015293;28;20112;-89
2021/05/13 03:23:40;;;;;;;161.18;13.27;;;8.80;91.50;;;;;;5033904;28;20018;-90
2021/05/13 03:26:06;;;;;;;82.30;12.57;;;8.80;91.50;;;;;;5015311;28;20511;-90
2021/05/13 03:28:31;;;;;;;133.73;12.40;;;8.80;91.50;;;;;;5054081;22;20119;-70
2021/05/13 03:30:57;;;;;;;166.40;14.13;;;8.80;91.60;;;;;;5081621;28;20027;-69
2021/05/13 03:33:23;;;;;;;148.50;14.05;;;8.80;91.70;;;;;;5086180;28;20016;-69
2021/05/13 03:35:48;;;;;;;123.22;12.73;;;8.80;91.70;;;;;;5088204;28;20016;-69
2021/05/13 03:38:14;;;;;;;107.15;11.77;;;8.80;91.60;;;;;;5086345;28;20067;-69
2021/05/13 03:40:41;;;;;;;91.43;12.57;;;8.80;91.70;;;;;;5085749;28;20035;-69
2021/05/13 03:43:07;;;;;;;56.50;10.90;;;8.70;91.60;;;;;;5087207;28;20023;-68
2021/05/13 03:45:34;;;;;;;74.80;11.73;;;8.70;91.80;;;;;;5068161;28;20427;-69
2021/05/13 03:48:02;;;;;;;72.70;11.05;;;8.70;91.80;;;;;;5084067;28;20039;-69
2021/05/13 03:50:32;;;;;;;62.22;11.13;;;8.70;91.80;;;;;;5092996;28;20055;-69
2021/05/13 03:52:58;;;;;;;38.80;10.32;;;8.70;91.80;;;;;;5089405;28;20043;-69
2021/05/13 03:55:24;;;;;;;50.72;10.48;;;8.70;91.90;;;;;;5089950;28;20020;-69
2021/05/13 03:57:50;;;;;;;39.20;10.27;;;8.60;91.90;;;;;;5072167;28;20383;-69
2021/05/13 04:00:18;;;;;;;56.70;10.23;;;8.70;92.00;;;;;;5067560;28;20054;-69
2021/05/13 04:02:44;;;;;;;49.28;9.40;;;8.70;91.90;;;;;;5070365;28;20103;-69
2021/05/13 04:05:11;;;;;;;21.75;9.50;;;8.60;91.80;;;;;;5089465;28;20012;-69
2021/05/13 04:07:38;;;;;;;44.45;10.20;;;8.60;91.90;;;;;;5091761;28;21025;-69
2021/05/13 04:10:08;;;;;;;21.00;10.13;;;8.60;91.90;;;;;;5089644;28;20103;-69
2021/05/13 04:12:38;;;;;;;23.20;9.85;;;8.50;92.00;;;;;;5090448;28;20024;-68
2021/05/13 04:15:07;;;;;;;17.23;9.48;;;8.50;92.00;;;;;;5081688;28;20031;-69
2021/05/13 04:17:32;;;;;;;43.25;10.20;;;8.60;92.00;;;;;;5070019;28;20436;-69
2021/05/13 04:19:58;;;;;;;28.73;9.65;;;8.60;92.00;;;;;;5090101;28;20093;-69
2021/05/13 04:22:23;;;;;;;30.73;10.30;;;8.60;92.10;;;;;;5084390;28;20096;-69
2021/05/13 04:24:49;;;;;;;31.52;10.27;;;8.60;92.00;;;;;;5091396;28;20024;-69
2021/05/13 04:27:15;;;;;;;18.88;9.18;;;8.60;92.00;;;;;;5081826;28;20111;-69
2021/05/13 04:29:40;;;;;;;20.27;9.95;;;8.60;92.10;;;;;;5093114;28;20040;-70
2021/05/13 04:32:06;;;;;;;17.85;9.32;;;8.60;92.20;;;;;;5086319;28;20028;-69
2021/05/13 04:34:31;;;;;;;22.67;9.60;;;8.70;92.30;;;;;;5088412;28;20036;-69
2021/05/13 04:36:57;;;;;;;33.97;9.57;;;8.70;92.10;;;;;;5072228;28;20085;-70
2021/05/13 04:39:23;;;;;;;26.85;9.40;;;8.80;92.20;;;;;;5089923;28;20016;-69
2021/05/13 04:41:51;;;;;;;26.17;9.55;;;8.90;92.20;;;;;;5072952;28;20027;-70
2021/05/13 04:44:16;;;;;;;20.00;8.93;;;8.90;92.20;;;;;;5081182;28;20078;-70
2021/05/13 04:46:42;;;;;;;15.45;8.13;;;8.90;92.20;;;;;;5089055;28;20035;-70
2021/05/13 04:51:35;;;;;;;56.20;10.13;;;9.00;92.10;;;;;;5088788;28;20024;-70
2021/05/13 04:54:01;;;;;;;110.63;12.00;;;9.00;92.10;;;;;;5089337;28;20063;-70
2021/05/13 04:56:28;;;;;;;99.93;11.02;;;9.10;92.20;;;;;;5061914;28;20425;-70
2021/05/13 04:58:54;;;;;;;104.18;10.93;;;9.10;92.10;;;;;;5086408;28;20029;-69
2021/05/13 05:01:20;;;;;;;88.30;10.70;;;9.10;92.10;;;;;;5092063;28;20365;-69
2021/05/13 05:03:47;;;;;;;88.15;11.07;;;9.10;92.00;;;;;;5091156;28;20024;-69
2021/05/13 05:06:12;;;;;;;63.97;10.45;;;9.00;92.10;;;;;;5086658;28;20028;-69
2021/05/13 05:08:39;;;;;;;27.55;9.98;;;9.10;92.20;;;;;;5085508;28;20024;-69
2021/05/13 05:11:05;;;;;;;44.63;10.25;;;9.10;92.30;;;;;;5082067;28;20032;-70
2021/05/13 05:13:31;;;;;;;26.75;11.23;;;9.10;92.20;;;;;;5086726;28;20098;-69
2021/05/13 05:15:57;;;;;;;43.90;10.85;;;9.20;92.20;;;;;;5081674;28;20475;-69
2021/05/13 05:18:24;;;;;;;57.47;10.88;;;9.20;92.10;;;;;;5085171;28;20024;-69
2021/05/13 05:20:51;;;;;;;24.10;10.00;;;9.20;92.20;;;;;;5086751;28;20024;-69
2021/05/13 05:23:18;;;;;;;37.70;9.90;;;9.20;92.40;;;;;;5089693;28;20028;-69
2021/05/13 05:25:45;;;;;;;20.58;9.98;;;9.20;92.10;;;;;;5070018;28;20059;-69
2021/05/13 05:28:11;;;;;;;22.65;8.98;;;9.30;92.20;;;;;;5089182;28;20043;-69
2021/05/13 05:30:38;;;;;;;20.02;10.55;;;9.30;92.10;;;;;;5090861;28;20020;-69
2021/05/13 05:33:05;;;;;;;18.83;10.90;;;9.30;92.20;;;;;;5089576;28;20050;-69
2021/05/13 05:35:31;;;;;;;23.25;11.00;;;9.40;92.20;;;;;;5084029;28;20024;-69
2021/05/13 05:37:57;;;;;;;60.05;10.65;;;9.40;92.30;;;;;;5089267;28;20035;-69
2021/05/13 05:40:23;;;;;;;31.70;9.32;;;9.50;92.20;;;;;;5084981;28;20024;-69
2021/05/13 05:42:49;;;;;;;25.55;9.65;;;9.50;92.20;;;;;;5083659;28;20036;-69
2021/05/13 05:45:16;;;;;;;20.10;9.35;;;9.50;92.20;;;;;;5080316;28;20028;-69
2021/05/13 05:47:42;;;;;;;14.63;8.95;;;9.60;92.10;;;;;;5068270;28;20031;-69
2021/05/13 05:50:09;;;;;;;24.40;9.07;;;9.60;92.20;;;;;;5086591;28;20043;-69
2021/05/13 05:52:35;;;;;;;14.32;8.63;;;9.70;92.10;;;;;;5089164;28;20107;-68
2021/05/13 05:55:02;;;;;;;11.93;7.93;;;9.70;92.10;;;;;;5086426;28;20116;-69
2021/05/13 05:57:28;;;;;;;16.88;7.85;;;9.90;92.20;;;;;;5070465;28;20036;-69
2021/05/13 05:59:53;;;;;;;10.15;7.47;;;10.00;92.10;;;;;;5087212;28;20028;-68
2021/05/13 06:02:19;;;;;;;9.57;6.90;;;10.10;92.00;;;;;;5089032;28;20114;-68
2021/05/13 06:04:45;;;;;;;10.40;7.70;;;10.20;92.00;;;;;;5088553;28;20024;-69
2021/05/13 06:07:11;;;;;;;14.02;8.05;;;10.30;92.10;;;;;;5086841;28;20020;-68
2021/05/13 06:09:36;;;;;;;11.38;7.35;;;10.40;91.90;;;;;;5088135;28;20042;-68
2021/05/13 06:12:02;;;;;;;11.90;7.82;;;10.40;91.90;;;;;;5088652;28;20484;-70
2021/05/13 06:14:28;;;;;;;10.63;7.75;;;10.50;91.80;;;;;;5088166;28;20095;-69
2021/05/13 06:16:53;;;;;;;10.32;7.57;;;10.60;91.80;;;;;;5085981;28;20052;-68
2021/05/13 06:19:19;;;;;;;11.52;7.35;;;10.70;91.80;;;;;;5072189;28;20081;-68
2021/05/13 06:21:45;;;;;;;9.20;7.57;;;10.80;91.90;;;;;;5078623;28;20028;-69
2021/05/13 06:24:11;;;;;;;10.18;7.28;;;11.00;91.90;;;;;;5063251;28;20028;-69
2021/05/13 06:26:38;;;;;;;11.02;7.15;;;11.10;92.00;;;;;;5069540;28;20027;-69
2021/05/13 06:29:05;;;;;;;12.68;8.35;;;11.20;91.90;;;;;;5084664;28;20028;-68
2021/05/13 06:31:31;;;;;;;15.10;9.18;;;11.30;91.80;;;;;;5058368;28;20111;-69
2021/05/13 06:33:57;;;;;;;16.42;9.30;;;11.30;91.70;;;;;;5086305;28;20475;-68
2021/05/13 06:36:22;;;;;;;16.25;9.63;;;11.40;91.70;;;;;;5083026;28;20047;-68
2021/05/13 06:38:48;;;;;;;16.58;10.00;;;11.50;91.70;;;;;;5079920;28;20024;-68
2021/05/13 06:41:14;;;;;;;13.27;8.95;;;11.50;91.70;;;;;;5084152;28;20066;-68
2021/05/13 06:43:40;;;;;;;13.80;9.55;;;11.60;91.70;;;;;;5086591;28;20020;-68
2021/05/13 06:46:06;;;;;;;13.75;9.18;;;11.60;91.60;;;;;;5084751;28;20024;-68
2021/05/13 06:48:34;;;;;;;12.32;8.18;;;11.60;91.50;;;;;;5078305;28;20032;-69
2021/05/13 06:51:01;;;;;;;9.57;7.05;;;11.70;91.30;;;;;;5070169;28;20043;-69
2021/05/13 06:53:26;;;;;;;10.30;6.22;;;11.70;91.00;;;;;;5064354;28;20092;-70
2021/05/13 06:55:53;;;;;;;7.93;6.28;;;11.70;90.80;;;;;;5077799;28;20464;-69
2021/05/13 06:58:22;;;;;;;8.00;5.93;;;11.80;90.80;;;;;;5075928;28;20017;-69
2021/05/13 07:00:48;;;;;;;8.55;6.55;;;12.10;90.80;;;;;;5076586;28;20020;-69
2021/05/13 07:03:15;;;;;;;7.80;5.72;;;12.50;90.90;;;;;;5083054;28;20024;-69
2021/05/13 07:05:42;;;;;;;7.32;6.10;;;12.80;90.40;;;;;;5063211;28;20181;-69
2021/05/13 07:08:09;;;;;;;6.20;5.57;;;13.10;90.00;;;;;;5088151;28;20499;-69
2021/05/13 07:10:36;;;;;;;7.00;5.05;;;13.50;89.70;;;;;;5086073;28;20073;-69
2021/05/13 07:13:03;;;;;;;9.60;5.63;;;13.80;89.20;;;;;;5065059;28;20028;-69
2021/05/13 07:15:28;;;;;;;7.47;4.85;;;14.00;87.50;;;;;;5088249;28;20483;-69
2021/05/13 07:17:54;;;;;;;5.63;4.03;;;14.20;87.00;;;;;;5085414;28;20107;-69
2021/05/13 07:20:21;;;;;;;4.50;3.63;;;14.40;87.00;;;;;;5068149;28;20020;-69
2021/05/13 07:22:47;;;;;;;4.68;4.13;;;14.60;86.30;;;;;;5090693;28;20016;-69
2021/05/13 07:25:13;;;;;;;4.10;3.38;;;14.80;85.50;;;;;;5093001;28;20097;-69
2021/05/13 07:27:38;;;;;;;4.78;4.28;;;15.10;85.30;;;;;;5075006;28;20032;-70
2021/05/13 07:30:05;;;;;;;5.20;3.35;;;15.40;84.30;;;;;;5066670;28;20077;-68
2021/05/13 07:32:30;;;;;;;5.82;3.38;;;15.80;84.50;;;;;;5088372;28;20024;-69
2021/05/13 07:34:56;;;;;;;4.00;3.00;;;16.30;83.40;;;;;;5089853;28;20035;-68
2021/05/13 07:37:22;;;;;;;4.40;3.00;;;16.70;82.10;;;;;;5074898;28;20032;-68
2021/05/13 07:39:48;;;;;;;3.00;2.70;;;17.10;80.90;;;;;;5093717;28;20019;-68
2021/05/13 07:42:14;;;;;;;3.83;2.75;;;17.40;80.50;;;;;;5093318;28;20024;-69
2021/05/13 07:44:40;;;;;;;5.70;3.30;;;18.00;79.30;;;;;;5073231;28;20027;-68
2021/05/13 07:47:05;;;;;;;3.78;2.83;;;18.50;78.10;;;;;;5089215;28;20108;-68
2021/05/13 07:49:33;;;;;;;4.85;2.70;;;18.80;76.10;;;;;;5072371;28;20036;-68
2021/05/13 07:51:59;;;;;;;3.88;2.67;;;19.10;75.20;;;;;;5091649;28;20448;-69
2021/05/13 07:54:25;;;;;;;5.40;2.65;;;19.20;74.20;;;;;;5090591;28;20039;-69
2021/05/13 07:56:50;;;;;;;5.78;2.72;;;19.30;73.30;;;;;;5073532;28;20028;-67
2021/05/13 07:59:16;;;;;;;6.82;2.80;;;19.50;73.80;;;;;;5091016;28;20507;-69
2021/05/13 08:01:41;;;;;;;5.85;3.30;;;20.00;73.50;;;;;;5088837;28;20027;-66
2021/05/13 08:04:07;;;;;;;4.75;2.78;;;20.40;71.60;;;;;;5095005;28;20027;-68
2021/05/13 08:06:32;;;;;;;5.03;2.28;;;20.70;70.30;;;;;;5074634;28;20032;-69
2021/05/13 08:08:58;;;;;;;2.38;2.17;;;21.10;70.40;;;;;;5091912;28;20028;-69
2021/05/13 08:11:24;;;;;;;3.80;2.40;;;21.50;68.80;;;;;;5091931;28;20099;-69
2021/05/13 08:13:49;;;;;;;2.63;2.13;;;22.00;68.60;;;;;;5090826;28;20460;-68
2021/05/13 08:16:15;;;;;;;3.20;2.50;;;22.70;67.40;;;;;;5092084;28;20060;-68
2021/05/13 08:18:41;;;;;;;10.00;2.38;;;23.20;65.30;;;;;;5091155;28;20107;-68
2021/05/13 08:21:06;;;;;;;6.55;2.30;;;23.10;63.90;;;;;;5092756;28;20115;-68
2021/05/13 08:23:32;;;;;;;2.63;2.05;;;23.30;64.00;;;;;;5088666;28;20039;-68
2021/05/13 08:25:58;;;;;;;3.67;2.00;;;23.60;63.50;;;;;;5091701;28;20476;-69
2021/05/13 08:28:23;;;;;;;3.05;1.73;;;24.10;62.50;;;;;;5090869;28;20040;-68
2021/05/13 08:30:49;;;;;;;5.43;2.22;;;24.40;61.90;;;;;;5070844;28;20627;-68
2021/05/13 08:33:15;;;;;;;2.63;1.98;;;25.00;59.90;;;;;;5085123;28;20491;-68
2021/05/13 08:35:40;;;;;;;4.35;2.15;;;25.60;58.40;;;;;;5091060;28;20492;-67
2021/05/13 08:38:06;;;;;;;4.15;2.28;;;26.00;57.60;;;;;;5092119;28;20024;-69
2021/05/13 08:40:32;;;;;;;3.67;1.80;;;25.80;58.20;;;;;;5092564;28;20076;-69
2021/05/13 08:42:59;;;;;;;4.32;2.10;;;24.80;59.90;;;;;;5073231;28;20023;-68
2021/05/13 08:45:25;;;;;;;4.63;2.10;;;23.90;61.00;;;;;;5076380;28;20023;-70
2021/05/13 08:47:52;;;;;;;7.72;1.60;;;23.20;61.80;;;;;;5081967;28;20434;-66
2021/05/13 08:50:19;;;;;;;4.70;2.08;;;22.50;62.60;;;;;;5089317;28;20039;-67
2021/05/13 08:52:45;;;;;;;3.22;2.13;;;21.90;63.30;;;;;;5087577;28;20377;-68
2021/05/13 08:55:12;;;;;;;5.93;1.52;;;21.40;64.00;;;;;;5061803;28;20039;-70
2021/05/13 08:57:38;;;;;;;4.63;2.10;;;20.90;64.40;;;;;;5077020;28;20035;-69
2021/05/13 09:00:06;;;;;;;5.78;2.08;;;20.40;65.10;;;;;;5082385;28;20388;-70
2021/05/13 09:02:32;;;;;;;3.45;1.90;;;20.10;65.50;;;;;;5087098;28;20043;-70
2021/05/13 09:04:59;;;;;;;3.78;2.28;;;19.80;66.20;;;;;;5085689;28;20054;-69
2021/05/13 09:07:28;;;;;;;4.15;2.10;;;19.50;66.40;;;;;;5099262;28;20433;-69
2021/05/13 09:09:55;;;;;;;6.00;2.05;;;19.30;66.80;;;;;;5073711;28;20487;-70
2021/05/13 09:12:21;;;;;;;2.30;1.75;;;19.10;67.40;;;;;;5091758;28;20032;-70
2021/05/13 09:14:58;;;;;;;3.58;1.40;;;18.90;67.10;;;;;;5069437;28;20033;-71
2021/05/13 09:17:25;;;;;;;3.38;1.50;;;18.80;67.00;;;;;;5069601;28;20028;-70
2021/05/13 09:19:51;;;;;;;5.93;1.70;;;18.70;67.50;;;;;;5085919;28;20024;-70
2021/05/13 09:22:24;;;;;;;5.15;1.67;;;18.60;67.50;;;;;;5090964;28;20187;-70
2021/05/13 09:24:57;;;;;;;3.25;1.45;;;18.60;66.80;;;;;;5089608;28;20395;-69
2021/05/13 09:30:21;;;;;;;3.45;1.45;;;18.70;66.50;;;;;;5124242;22;20595;-74
2021/05/13 09:32:52;;;;;;;2.67;1.20;;;19.20;65.60;;;;;;5050409;28;20027;-73
2021/05/13 09:35:29;;;;;;;2.70;1.25;;;19.80;64.70;;;;;;5049578;28;20206;-73
2021/05/13 09:38:01;;;;;;;6.20;1.38;;;19.80;65.00;;;;;;5049638;28;20392;-73
2021/05/13 09:40:32;;;;;;;;;;;19.60;65.10;;;;;;5051278;28;20488;-71
2021/05/13 09:43:18;;;;;;;1.73;1.27;;;19.50;66.10;;;;;;5032579;28;19912;-72
2021/05/13 09:45:54;;;;;;;3.08;1.27;;;18.90;64.60;;;;;;5043921;28;20028;-72
2021/05/13 09:48:42;;;;;;;3.22;1.20;;;18.50;64.80;;;;;;5038562;28;20029;-71
2021/05/13 09:51:17;;;;;;;4.32;1.38;;;18.20;64.30;;;;;;5049836;28;20044;-71
2021/05/13 09:53:43;;;;;;;2.78;1.20;;;18.00;64.30;;;;;;5050185;28;20033;-72
2021/05/13 09:56:29;;;;;;;4.35;1.00;;;17.70;65.50;;;;;;5046188;28;20036;-70
2021/05/13 09:58:55;;;;;;;2.45;1.20;;;17.60;64.60;;;;;;5056054;28;20045;-71
2021/05/13 10:01:21;;;;;;;2.17;1.00;;;17.30;65.20;;;;;;5056381;28;20078;-71
2021/05/13 10:03:47;;;;;;;3.15;1.13;;;17.20;66.10;;;;;;5049520;28;20087;-73
2021/05/13 10:06:13;;;;;;;3.50;1.30;;;17.00;65.40;;;;;;5032048;28;20055;-74
2021/05/13 10:08:41;;;;;;;5.82;1.40;;;16.90;66.00;;;;;;5044377;28;20082;-72
2021/05/13 10:11:08;;;;;;;2.17;0.95;;;16.90;66.20;;;;;;5047300;28;20032;-73
2021/05/13 10:13:34;;;;;;;1.75;1.20;;;16.80;65.80;;;;;;5048138;28;20025;-72
2021/05/13 10:16:05;;;;;;;2.63;1.30;;;16.60;65.50;;;;;;5049658;28;20029;-72
2021/05/13 10:18:40;;;;;;;6.80;1.48;;;16.50;66.20;;;;;;5050922;28;20073;-72
2021/05/13 10:21:12;;;;;;;2.60;1.17;;;16.50;66.40;;;;;;5050945;28;20029;-72
2021/05/13 10:23:40;;;;;;;;;;;16.60;66.70;;;;;;5056575;28;20105;-73
2021/05/13 10:26:06;;;;;;;2.97;0.80;;;16.70;67.20;;;;;;5048972;28;20345;-72
2021/05/13 10:28:33;;;;;;;1.67;0.90;;;16.70;67.10;;;;;;5051523;28;20135;-72
2021/05/13 10:31:06;;;;;;;4.22;1.40;;;16.80;66.60;;;;;;5037878;28;20386;-72
2021/05/13 10:33:51;;;;;;;4.80;1.17;;;16.90;66.10;;;;;;5033086;28;20035;-72
2021/05/13 10:36:18;;;;;;;21.88;13.93;;;17.20;66.10;;;;;;5050161;28;20044;-73
2021/05/13 10:38:45;;;;;;;2.85;1.42;;;17.50;66.60;;;;;;5056336;28;20044;-73
2021/05/13 10:41:38;;;;;;;2.42;1.30;;;17.80;66.20;;;;;;5049881;28;20029;-73
2021/05/13 10:44:09;;;;;;;4.05;1.40;;;18.10;65.00;;;;;;5049969;28;20105;-74
2021/05/13 10:46:39;;;;;;;4.05;1.20;;;18.10;64.70;;;;;;5050433;28;20029;-72
2021/05/13 10:49:16;;;;;;;4.03;1.20;;;18.30;65.10;;;;;;5050390;28;20405;-72
2021/05/13 10:51:54;;;;;;;3.58;1.30;;;18.60;64.50;;;;;;5050262;28;20128;-74
2021/05/13 10:54:28;;;;;;;2.92;0.93;;;18.90;65.00;;;;;;5055177;28;20028;-73
2021/05/13 10:57:23;;;;;;;1.80;1.08;;;19.20;63.90;;;;;;5048690;28;20065;-72
2021/05/13 11:00:05;;;;;;;1.13;0.80;;;19.10;62.60;;;;;;5030834;28;20036;-73
2021/05/13 11:02:38;;;;;;;1.17;0.80;;;19.20;62.50;;;;;;5023552;28;20021;-73
2021/05/13 11:05:27;;;;;;;2.10;1.33;;;19.30;62.20;;;;;;5042871;28;20021;-72
2021/05/13 11:08:03;;;;;;;1.77;1.00;;;19.30;61.60;;;;;;5035002;28;20408;-73
2021/05/13 11:10:48;;;;;;;4.60;1.10;;;19.50;62.00;;;;;;5056862;28;20029;-73
2021/05/13 11:13:14;;;;;;;4.13;1.23;;;19.70;61.70;;;;;;5030425;28;20381;-73
2021/05/13 11:15:42;;;;;;;2.92;1.23;;;19.90;61.90;;;;;;5028299;28;20033;-73
2021/05/13 11:18:11;;;;;;;2.83;0.90;;;20.00;61.30;;;;;;5049129;28;20021;-72
2021/05/13 11:20:44;;;;;;;4.15;1.10;;;20.30;61.50;;;;;;5050678;28;20103;-72
2021/05/13 11:23:19;;;;;;;3.97;1.20;;;20.40;60.80;;;;;;5049957;28;20032;-73
2021/05/13 11:25:57;;;;;;;1.83;1.20;;;20.60;60.00;;;;;;5049218;28;20025;-73
2021/05/13 11:28:32;;;;;;;2.60;1.10;;;20.60;58.60;;;;;;5049429;28;20488;-73
2021/05/13 11:31:03;;;;;;;1.27;1.00;;;20.70;59.30;;;;;;5050523;28;20029;-73
2021/05/13 11:33:38;;;;;;;2.70;1.00;;;20.70;59.40;;;;;;5049882;28;20546;-73
2021/05/13 11:36:06;;;;;;;3.25;0.80;;;20.90;59.00;;;;;;5054545;28;20041;-73
2021/05/13 11:38:31;;;;;;;2.25;0.90;;;21.10;59.10;;;;;;5036271;28;20037;-73
2021/05/13 11:40:58;;;;;;;4.82;0.80;;;21.10;58.40;;;;;;5050130;28;20025;-73
2021/05/13 11:43:31;;;;;;;3.55;0.77;;;21.20;57.60;;;;;;5054538;28;20074;-74
2021/05/13 11:45:59;;;;;;;1.63;0.70;;;21.20;57.30;;;;;;5048674;28;20081;-73
2021/05/13 11:48:33;;;;;;;2.58;0.70;;;21.30;56.80;;;;;;5049438;28;20433;-73
2021/05/13 11:51:08;;;;;;;1.55;0.85;;;21.50;56.00;;;;;;5049811;28;20162;-73
2021/05/13 11:53:35;;;;;;;4.45;0.90;;;21.60;55.80;;;;;;5049465;28;20028;-73
2021/05/13 11:56:04;;;;;;;2.78;0.93;;;21.90;56.50;;;;;;5048556;28;20032;-73
2021/05/13 11:58:52;;;;;;;2.17;0.93;;;22.00;56.20;;;;;;5047973;28;20037;-73
2021/05/13 12:01:23;;;;;;;3.88;0.90;;;22.00;56.20;;;;;;5045214;28;20024;-73
2021/05/13 12:04:10;;;;;;;2.85;0.82;;;22.00;55.20;;;;;;5025360;28;20029;-74
2021/05/13 12:07:02;;;;;;;4.35;1.05;;;21.90;54.70;;;;;;5049560;28;20037;-73
2021/05/13 12:09:30;;;;;;;2.80;0.90;;;21.70;55.00;;;;;;5047978;28;20492;-73
2021/05/13 12:11:56;;;;;;;9.73;4.38;;;21.50;55.00;;;;;;5053988;28;20028;-72
2021/05/13 12:14:24;;;;;;;3.15;1.35;;;21.30;54.50;;;;;;5048099;28;20048;-73
2021/05/13 12:16:53;;;;;;;2.85;0.82;;;21.10;54.40;;;;;;5053203;28;20473;-72
2021/05/13 12:19:20;;;;;;;1.65;0.70;;;20.90;54.10;;;;;;5054068;28;20036;-73
2021/05/13 12:21:51;;;;;;;5.10;0.80;;;20.90;54.30;;;;;;5053149;28;20070;-72
2021/05/13 12:24:16;;;;;;;2.17;0.95;;;21.00;54.60;;;;;;5053579;28;20100;-73
2021/05/13 12:26:43;;;;;;;2.35;0.90;;;20.90;54.50;;;;;;5054607;28;20550;-72
2021/05/13 12:29:13;;;;;;;1.33;0.88;;;20.90;54.70;;;;;;5053480;28;20715;-72
2021/05/13 12:31:39;;;;;;;4.25;1.10;;;20.90;54.70;;;;;;5045635;28;20053;-73
2021/05/13 12:34:06;;;;;;;2.92;0.90;;;20.80;54.90;;;;;;5047167;28;20017;-74
2021/05/13 12:36:36;;;;;;;3.70;0.90;;;20.70;54.60;;;;;;5054658;28;20017;-73
2021/05/13 12:39:03;;;;;;;1.83;0.80;;;20.80;54.80;;;;;;5053500;28;20389;-72
2021/05/13 12:41:29;;;;;;;3.00;0.93;;;20.80;54.80;;;;;;5074136;28;20048;-72
2021/05/13 12:44:16;;;;;;;2.83;0.73;;;20.80;54.40;;;;;;5073013;28;20028;-74
2021/05/13 12:46:46;;;;;;;5.18;0.70;;;20.60;54.00;;;;;;5072719;28;20017;-73
2021/05/13 12:49:25;;;;;;;1.73;0.70;;;20.50;54.40;;;;;;5056142;28;20052;-74
2021/05/13 12:51:59;;;;;;;1.02;0.55;;;20.30;54.10;;;;;;5053465;28;20017;-73
2021/05/13 12:54:25;;;;;;;2.50;0.60;;;20.20;53.90;;;;;;5052508;28;20040;-73